createdAt,value
2023-04-27T00:01:12.640Z,15.48
2023-04-27T00:03:39.636Z,15.70
2023-04-27T00:06:06.769Z,11.23
2023-04-27T00:08:33.654Z,7.55
2023-04-27T00:11:00.906Z,12.80
2023-04-27T00:13:27.670Z,9.90
2023-04-27T00:15:54.554Z,18.33
2023-04-27T00:18:21.345Z,35.13
2023-04-27T00:20:48.288Z,23.38
2023-04-27T00:23:14.987Z,17.10
2023-04-27T00:25:41.725Z,10.73
2023-04-27T00:28:08.530Z,6.93
2023-04-27T00:30:35.978Z,8.50
2023-04-27T00:33:02.802Z,8.20
2023-04-27T00:35:29.496Z,9.80
2023-04-27T00:37:58.253Z,7.90
2023-04-27T00:40:24.919Z,7.22
2023-04-27T00:42:52.746Z,6.93
2023-04-27T00:45:19.469Z,9.73
2023-04-27T00:47:46.166Z,10.82
2023-04-27T00:50:13.391Z,8.82
2023-04-27T00:52:40.095Z,12.20
2023-04-27T00:55:08.569Z,10.27
2023-04-27T00:57:35.684Z,9.90
2023-04-27T01:00:07.007Z,15.80
2023-04-27T01:02:35.158Z,10.13
2023-04-27T01:05:03.185Z,8.73
2023-04-27T01:07:30.155Z,10.63
2023-04-27T01:09:59.037Z,13.35
2023-04-27T01:12:26.523Z,9.30
2023-04-27T01:14:53.606Z,9.20
2023-04-27T01:17:21.246Z,10.00
2023-04-27T01:19:51.506Z,10.70
2023-04-27T01:22:18.861Z,11.25
2023-04-27T01:24:46.168Z,9.77
2023-04-27T01:27:13.408Z,14.60
2023-04-27T01:29:41.290Z,29.70
2023-04-27T01:32:09.101Z,13.15
2023-04-27T01:34:36.621Z,16.27
2023-04-27T01:37:04.241Z,29.85
2023-04-27T01:39:31.578Z,28.90
2023-04-27T01:41:58.762Z,23.25
2023-04-27T01:44:26.288Z,26.67
2023-04-27T01:46:54.632Z,21.35
2023-04-27T01:49:21.740Z,9.05
2023-04-27T01:51:49.534Z,11.90
2023-04-27T01:54:16.600Z,8.20
2023-04-27T01:56:43.911Z,12.38
2023-04-27T01:59:11.454Z,8.18
2023-04-27T02:01:39.330Z,10.57
2023-04-27T02:04:06.790Z,12.73
2023-04-27T02:06:34.058Z,9.48
2023-04-27T02:09:01.451Z,9.80
2023-04-27T02:11:28.953Z,10.35
2023-04-27T02:13:56.687Z,11.95
2023-04-27T02:16:32.232Z,11.88
2023-04-27T02:18:59.531Z,12.43
2023-04-27T02:21:26.821Z,13.23
2023-04-27T02:23:53.819Z,13.15
2023-04-27T02:26:22.231Z,11.45
2023-04-27T02:28:50.427Z,11.98
2023-04-27T02:31:17.763Z,15.23
2023-04-27T02:33:46.384Z,8.75
2023-04-27T02:36:13.417Z,10.65
2023-04-27T02:38:40.794Z,7.95
2023-04-27T02:41:07.569Z,10.88
2023-04-27T02:43:34.638Z,14.52
2023-04-27T02:46:05.851Z,10.15
2023-04-27T02:48:33.150Z,9.65
2023-04-27T02:51:04.179Z,10.13
2023-04-27T02:53:31.473Z,9.10
2023-04-27T02:55:59.292Z,8.00
2023-04-27T02:58:26.742Z,11.13
2023-04-27T03:00:57.335Z,9.57
2023-04-27T03:03:25.247Z,15.18
2023-04-27T03:05:52.330Z,12.13
2023-04-27T03:08:19.909Z,8.55
2023-04-27T03:10:46.990Z,8.05
2023-04-27T03:13:15.383Z,8.75
2023-04-27T03:15:43.956Z,14.93
2023-04-27T03:18:11.380Z,10.63
2023-04-27T03:20:38.617Z,10.98
2023-04-27T03:23:07.805Z,9.77
2023-04-27T03:25:34.979Z,8.18
2023-04-27T03:28:02.087Z,9.05
2023-04-27T03:30:29.853Z,7.70
2023-04-27T03:32:57.745Z,8.35
2023-04-27T03:35:25.059Z,9.52
2023-04-27T03:37:52.533Z,8.65
2023-04-27T03:40:20.986Z,8.35
2023-04-27T03:42:48.145Z,14.13
2023-04-27T03:45:16.813Z,9.63
2023-04-27T03:47:44.079Z,9.20
2023-04-27T03:50:11.562Z,10.70
2023-04-27T03:52:38.660Z,8.60
2023-04-27T03:55:07.108Z,10.48
2023-04-27T03:57:34.631Z,9.73
2023-04-27T04:00:01.729Z,10.00
2023-04-27T04:02:30.358Z,11.13
2023-04-27T04:04:57.888Z,43.97
2023-04-27T04:07:25.114Z,22.88
2023-04-27T04:09:52.125Z,26.30
2023-04-27T04:12:19.091Z,15.93
2023-04-27T04:14:49.065Z,16.08
2023-04-27T04:17:16.950Z,19.58
2023-04-27T04:19:44.134Z,20.13
2023-04-27T04:22:12.032Z,12.80
2023-04-27T04:24:40.477Z,15.13
2023-04-27T04:27:07.522Z,14.18
2023-04-27T04:29:34.532Z,18.25
2023-04-27T04:32:01.641Z,11.75
2023-04-27T04:34:31.144Z,12.20
2023-04-27T04:36:58.301Z,10.25
2023-04-27T04:39:27.033Z,13.27
2023-04-27T04:41:54.143Z,12.55
2023-04-27T04:44:22.107Z,11.27
2023-04-27T04:46:49.256Z,7.50
2023-04-27T04:49:16.638Z,12.18
2023-04-27T04:51:47.218Z,9.18
2023-04-27T04:54:14.426Z,6.40
2023-04-27T04:56:42.025Z,9.20
2023-04-27T04:59:08.940Z,11.32
2023-04-27T05:01:37.118Z,9.73
2023-04-27T05:04:05.583Z,9.20
2023-04-27T05:06:33.304Z,10.93
2023-04-27T05:09:00.257Z,8.95
2023-04-27T05:11:27.096Z,9.23
2023-04-27T05:13:54.140Z,11.55
2023-04-27T05:16:21.338Z,9.45
2023-04-27T05:18:48.636Z,8.15
2023-04-27T05:21:16.601Z,9.32
2023-04-27T05:23:43.547Z,10.43
2023-04-27T05:26:14.920Z,8.13
2023-04-27T05:28:41.805Z,7.05
2023-04-27T05:31:09.187Z,7.20
2023-04-27T05:33:36.755Z,8.98
2023-04-27T05:36:04.799Z,8.98
2023-04-27T05:38:33.459Z,9.38
2023-04-27T05:41:00.661Z,9.25
2023-04-27T05:43:27.629Z,8.60
2023-04-27T05:45:54.956Z,7.07
2023-04-27T05:48:22.081Z,6.15
2023-04-27T05:50:49.170Z,7.97
2023-04-27T05:53:17.368Z,9.80
2023-04-27T05:55:44.777Z,10.50
2023-04-27T05:58:11.824Z,7.07
2023-04-27T06:00:39.094Z,9.27
2023-04-27T06:03:07.204Z,10.93
2023-04-27T06:05:34.787Z,12.82
2023-04-27T06:08:01.980Z,8.20
2023-04-27T06:10:29.230Z,7.05
2023-04-27T06:12:56.676Z,10.45
2023-04-27T06:15:24.168Z,8.05
2023-04-27T06:17:51.400Z,11.13
2023-04-27T06:20:18.826Z,8.50
2023-04-27T06:22:46.956Z,9.98
2023-04-27T06:25:14.106Z,13.77
2023-04-27T06:27:41.473Z,8.73
2023-04-27T06:30:08.778Z,8.55
2023-04-27T06:32:35.955Z,11.18
2023-04-27T06:35:03.014Z,11.77
2023-04-27T06:37:30.749Z,9.15
2023-04-27T06:39:58.014Z,8.73
2023-04-27T06:42:25.159Z,9.77
2023-04-27T06:44:56.664Z,12.23
2023-04-27T06:49:51.270Z,9.55
2023-04-27T06:52:18.765Z,8.85
2023-04-27T06:54:45.788Z,7.70
2023-04-27T06:57:12.820Z,13.15
2023-04-27T06:59:39.949Z,8.80
2023-04-27T07:02:07.776Z,8.90
2023-04-27T07:04:35.038Z,8.18
2023-04-27T07:07:02.053Z,8.30
2023-04-27T07:09:29.655Z,9.10
2023-04-27T07:11:58.319Z,9.18
2023-04-27T07:14:25.400Z,9.32
2023-04-27T07:16:52.797Z,9.27
2023-04-27T07:19:19.832Z,10.45
2023-04-27T07:21:47.109Z,6.47
2023-04-27T07:24:14.364Z,9.18
2023-04-27T07:26:41.498Z,6.85
2023-04-27T07:29:25.413Z,6.43
2023-04-27T07:31:54.561Z,8.02
2023-04-27T07:34:22.054Z,6.65
2023-04-27T07:36:49.194Z,8.68
2023-04-27T07:39:16.285Z,7.00
2023-04-27T07:41:43.615Z,6.03
2023-04-27T07:44:12.349Z,8.70
2023-04-27T07:46:39.979Z,8.32
2023-04-27T07:49:07.027Z,11.50
2023-04-27T07:51:34.674Z,8.00
2023-04-27T07:54:04.257Z,10.13
2023-04-27T07:56:31.249Z,7.50
2023-04-27T07:58:58.357Z,8.95
2023-04-27T08:01:25.766Z,5.43
2023-04-27T08:03:52.884Z,6.03
2023-04-27T08:06:20.790Z,8.07
2023-04-27T08:08:48.316Z,14.27
2023-04-27T08:11:15.685Z,8.20
2023-04-27T08:13:42.548Z,8.20
2023-04-27T08:16:09.509Z,10.52
2023-04-27T08:18:36.666Z,5.68
2023-04-27T08:21:04.326Z,6.40
2023-04-27T08:23:33.124Z,8.88
2023-04-27T08:26:00.127Z,7.15
2023-04-27T08:28:27.791Z,7.10
2023-04-27T08:30:55.237Z,8.82
2023-04-27T08:33:22.397Z,8.82
2023-04-27T08:35:49.345Z,5.43
2023-04-27T08:38:16.521Z,11.52
2023-04-27T08:40:43.821Z,10.30
2023-04-27T08:43:10.882Z,8.65
2023-04-27T08:45:38.465Z,7.30
2023-04-27T08:48:06.188Z,18.30
2023-04-27T08:50:33.118Z,10.15
2023-04-27T08:53:00.747Z,7.50
2023-04-27T08:55:28.368Z,9.25
2023-04-27T08:58:00.321Z,6.57
2023-04-27T09:00:27.757Z,11.10
2023-04-27T09:02:54.879Z,7.45
2023-04-27T09:05:23.815Z,9.63
2023-04-27T09:08:05.256Z,7.88
2023-04-27T09:10:50.881Z,7.82
2023-04-27T09:13:18.048Z,13.70
2023-04-27T09:15:48.593Z,7.05
2023-04-27T09:18:17.726Z,7.68
2023-04-27T09:20:49.620Z,9.55
2023-04-27T09:23:26.610Z,11.38
2023-04-27T09:25:55.136Z,5.68
2023-04-27T09:28:22.658Z,7.68
2023-04-27T09:30:56.847Z,7.72
2023-04-27T09:33:31.910Z,8.55
2023-04-27T09:36:00.497Z,11.25
2023-04-27T09:38:27.747Z,10.38
2023-04-27T09:40:56.754Z,10.02
2023-04-27T09:43:24.912Z,9.60
2023-04-27T09:45:52.048Z,7.90
2023-04-27T09:48:19.148Z,6.93
2023-04-27T09:50:47.072Z,10.30
2023-04-27T09:53:16.145Z,7.38
2023-04-27T09:55:49.484Z,8.27
2023-04-27T09:58:49.281Z,10.07
2023-04-27T10:01:27.466Z,11.07
2023-04-27T10:04:10.015Z,7.38
2023-04-27T10:06:59.169Z,9.88
2023-04-27T10:09:28.000Z,9.07
2023-04-27T10:11:55.300Z,10.68
2023-04-27T10:14:24.002Z,8.90
2023-04-27T10:16:58.709Z,13.27
2023-04-27T10:19:26.120Z,8.20
2023-04-27T10:22:03.612Z,8.95
2023-04-27T10:24:41.835Z,8.77
2023-04-27T10:27:14.178Z,6.47
2023-04-27T10:29:44.017Z,8.02
2023-04-27T10:32:26.594Z,6.70
2023-04-27T10:35:06.318Z,4.72
2023-04-27T10:37:43.530Z,8.43
2023-04-27T10:40:15.107Z,11.02
2023-04-27T10:42:42.455Z,13.43
2023-04-27T10:45:09.907Z,9.18
2023-04-27T10:47:39.270Z,8.30
2023-04-27T10:50:07.591Z,7.67
2023-04-27T10:52:34.793Z,7.97
2023-04-27T10:55:14.985Z,8.93
2023-04-27T10:57:53.359Z,10.20
2023-04-27T11:00:25.252Z,5.75
2023-04-27T11:02:53.992Z,9.43
2023-04-27T11:05:28.855Z,7.95
2023-04-27T11:08:09.892Z,6.03
2023-04-27T11:10:41.476Z,5.38
2023-04-27T11:13:13.961Z,8.05
2023-04-27T11:15:48.954Z,8.85
2023-04-27T11:18:17.317Z,7.68
2023-04-27T11:20:49.313Z,6.68
2023-04-27T11:23:24.675Z,8.30
2023-04-27T11:25:52.471Z,9.25
2023-04-27T11:28:20.171Z,7.25
2023-04-27T11:30:47.571Z,8.23
2023-04-27T11:33:14.345Z,7.63
2023-04-27T11:35:42.707Z,11.25
2023-04-27T11:38:17.024Z,5.90
2023-04-27T11:40:45.023Z,8.40
2023-04-27T11:43:15.596Z,7.07
2023-04-27T11:45:46.487Z,3.95
2023-04-27T11:48:16.810Z,8.00
2023-04-27T11:50:48.515Z,8.15
2023-04-27T11:53:18.563Z,8.18
2023-04-27T11:55:52.450Z,5.72
2023-04-27T11:58:21.323Z,5.22
2023-04-27T12:00:48.350Z,7.63
2023-04-27T12:03:15.668Z,5.20
2023-04-27T12:05:52.984Z,4.55
2023-04-27T12:08:20.779Z,5.82
2023-04-27T12:10:47.722Z,5.07
2023-04-27T12:13:14.997Z,6.78
2023-04-27T12:15:42.641Z,5.78
2023-04-27T12:18:09.951Z,6.78
2023-04-27T12:20:37.652Z,5.85
2023-04-27T12:23:04.523Z,8.85
2023-04-27T12:25:31.866Z,7.07
2023-04-27T12:27:59.093Z,5.28
2023-04-27T12:30:27.235Z,5.40
2023-04-27T12:32:54.256Z,7.05
2023-04-27T12:35:21.467Z,4.78
2023-04-27T12:37:50.068Z,7.63
2023-04-27T12:40:17.429Z,6.97
2023-04-27T12:42:44.639Z,6.22
2023-04-27T12:45:12.016Z,9.88
2023-04-27T12:47:58.345Z,7.90
2023-04-27T12:50:27.316Z,8.23
2023-04-27T12:52:54.867Z,6.47
2023-04-27T12:55:33.087Z,6.03
2023-04-27T12:58:03.482Z,6.63
2023-04-27T13:00:31.175Z,8.03
2023-04-27T13:02:58.820Z,8.55
2023-04-27T13:05:26.529Z,8.85
2023-04-27T13:07:53.641Z,8.73
2023-04-27T13:10:20.882Z,7.75
2023-04-27T13:12:47.937Z,7.82
2023-04-27T13:15:15.709Z,8.35
2023-04-27T13:17:43.868Z,7.85
2023-04-27T13:20:11.814Z,7.75
2023-04-27T13:22:40.700Z,7.40
2023-04-27T13:25:09.498Z,7.50
2023-04-27T13:27:36.961Z,9.52
2023-04-27T13:30:05.311Z,9.75
2023-04-27T13:32:32.665Z,6.93
2023-04-27T13:34:59.864Z,7.85
2023-04-27T13:37:27.388Z,5.28
2023-04-27T13:39:55.533Z,7.22
2023-04-27T13:42:29.159Z,8.93
2023-04-27T13:44:57.107Z,5.25
2023-04-27T13:47:24.038Z,6.88
2023-04-27T13:49:52.277Z,4.68
2023-04-27T13:52:19.705Z,8.93
2023-04-27T13:54:47.164Z,5.50
2023-04-27T13:57:15.363Z,5.05
2023-04-27T13:59:42.584Z,4.50
2023-04-27T14:02:10.254Z,6.90
2023-04-27T14:04:37.349Z,6.93
2023-04-27T14:07:05.382Z,8.90
2023-04-27T14:09:32.592Z,4.55
2023-04-27T14:12:00.285Z,7.15
2023-04-27T14:14:27.671Z,5.00
2023-04-27T14:16:54.976Z,4.25
2023-04-27T14:19:22.226Z,3.55
2023-04-27T14:21:49.728Z,7.10
2023-04-27T14:24:16.896Z,7.57
2023-04-27T14:26:44.240Z,12.13
2023-04-27T14:29:12.028Z,8.60
2023-04-27T14:31:39.729Z,9.65
2023-04-27T14:34:07.660Z,6.55
2023-04-27T14:36:34.946Z,4.28
2023-04-27T14:39:02.079Z,6.60
2023-04-27T14:41:29.212Z,9.98
2023-04-27T14:43:56.422Z,8.15
2023-04-27T14:46:23.328Z,4.78
2023-04-27T14:48:50.259Z,6.93
2023-04-27T14:51:17.474Z,6.30
2023-04-27T14:53:44.615Z,5.05
2023-04-27T14:56:11.876Z,7.10
2023-04-27T14:58:39.000Z,4.05
2023-04-27T15:01:07.488Z,5.78
2023-04-27T15:03:35.052Z,4.47
2023-04-27T15:06:03.138Z,4.32
2023-04-27T15:08:32.657Z,7.32
2023-04-27T15:11:03.858Z,5.18
2023-04-27T15:13:31.220Z,9.90
2023-04-27T15:15:59.325Z,4.85
2023-04-27T15:18:26.957Z,4.45
2023-04-27T15:20:54.678Z,4.28
2023-04-27T15:23:22.534Z,5.60
2023-04-27T15:25:50.288Z,3.70
2023-04-27T15:28:18.150Z,5.10
2023-04-27T15:30:46.024Z,4.80
2023-04-27T15:33:14.280Z,5.88
2023-04-27T15:35:41.789Z,4.50
2023-04-27T15:38:12.263Z,3.47
2023-04-27T15:40:39.685Z,6.57
2023-04-27T15:43:06.947Z,5.50
2023-04-27T15:45:33.929Z,4.50
2023-04-27T15:48:00.799Z,4.65
2023-04-27T15:50:28.874Z,3.42
2023-04-27T15:52:56.394Z,4.55
2023-04-27T15:55:23.353Z,6.88
2023-04-27T15:57:50.865Z,3.60
2023-04-27T16:00:19.047Z,4.43
2023-04-27T16:02:46.795Z,3.15
2023-04-27T16:05:14.421Z,3.65
2023-04-27T16:07:43.237Z,2.85
2023-04-27T16:10:11.496Z,3.58
2023-04-27T16:12:38.914Z,3.70
2023-04-27T16:15:08.446Z,3.08
2023-04-27T16:17:37.465Z,3.58
2023-04-27T16:20:08.169Z,4.55
2023-04-27T16:22:36.138Z,3.08
2023-04-27T16:25:06.551Z,5.03
2023-04-27T16:27:33.625Z,2.15
2023-04-27T16:30:00.681Z,2.25
2023-04-27T16:32:27.699Z,4.63
2023-04-27T16:34:55.098Z,3.05
2023-04-27T16:37:22.080Z,3.58
2023-04-27T16:39:49.362Z,5.50
2023-04-27T16:42:20.580Z,5.55
2023-04-27T16:44:47.744Z,3.25
2023-04-27T16:47:16.477Z,4.38
2023-04-27T16:49:44.323Z,4.40
2023-04-27T16:52:11.939Z,3.45
2023-04-27T16:54:38.971Z,3.30
2023-04-27T16:57:07.881Z,3.35
2023-04-27T16:59:35.150Z,6.15
2023-04-27T17:02:16.324Z,3.83
2023-04-27T17:04:49.117Z,5.88
2023-04-27T17:07:16.270Z,2.70
2023-04-27T17:09:43.504Z,3.08
2023-04-27T17:12:14.998Z,3.17
2023-04-27T17:14:42.663Z,2.13
2023-04-27T17:17:11.167Z,4.47
2023-04-27T17:19:38.966Z,3.80
2023-04-27T17:22:08.081Z,22.48
2023-04-27T17:24:35.046Z,14.23
2023-04-27T17:27:01.790Z,3.05
2023-04-27T17:29:29.178Z,2.63
2023-04-27T17:31:56.067Z,4.53
2023-04-27T17:34:22.985Z,2.67
2023-04-27T17:36:49.992Z,3.20
2023-04-27T17:39:17.196Z,3.03
2023-04-27T17:41:44.404Z,5.03
2023-04-27T17:44:12.610Z,4.88
2023-04-27T17:46:45.719Z,4.28
2023-04-27T17:49:13.076Z,7.45
2023-04-27T17:51:40.672Z,3.33
2023-04-27T17:54:07.754Z,9.48
2023-04-27T17:56:34.670Z,12.70
2023-04-27T17:59:01.719Z,10.43
2023-04-27T18:01:28.811Z,9.95
2023-04-27T18:03:56.083Z,8.98
2023-04-27T18:06:23.183Z,13.50
2023-04-27T18:08:50.248Z,7.53
2023-04-27T18:11:17.185Z,4.43
2023-04-27T18:13:45.471Z,6.13
2023-04-27T18:16:12.374Z,4.13
2023-04-27T18:18:39.213Z,4.97
2023-04-27T18:21:06.913Z,5.75
2023-04-27T18:23:37.502Z,5.10
2023-04-27T18:26:04.662Z,4.45
2023-04-27T18:28:31.705Z,4.53
2023-04-27T18:30:58.609Z,3.75
2023-04-27T18:33:25.915Z,4.68
2023-04-27T18:35:52.900Z,3.53
2023-04-27T18:38:19.743Z,2.92
2023-04-27T18:40:46.783Z,3.28
2023-04-27T18:43:13.784Z,2.97
2023-04-27T18:45:40.809Z,5.07
2023-04-27T18:48:07.795Z,4.28
2023-04-27T18:50:34.924Z,6.50
2023-04-27T18:53:01.856Z,4.82
2023-04-27T18:55:28.635Z,4.03
2023-04-27T18:57:55.616Z,4.55
2023-04-27T19:00:22.534Z,4.18
2023-04-27T19:02:51.994Z,8.73
2023-04-27T19:05:19.675Z,7.60
2023-04-27T19:07:46.706Z,5.05
2023-04-27T19:10:13.691Z,8.95
2023-04-27T19:12:40.739Z,7.72
2023-04-27T19:15:08.150Z,3.90
2023-04-27T19:17:35.571Z,3.75
2023-04-27T19:20:02.678Z,6.28
2023-04-27T19:22:34.086Z,4.70
2023-04-27T19:25:01.444Z,8.00
2023-04-27T19:27:28.749Z,5.78
2023-04-27T19:29:58.223Z,6.03
2023-04-27T19:34:58.378Z,4.13
2023-04-27T19:37:26.192Z,9.00
2023-04-27T19:39:53.271Z,5.53
2023-04-27T19:42:20.338Z,4.95
2023-04-27T19:44:47.206Z,4.88
2023-04-27T19:47:14.113Z,6.93
2023-04-27T19:49:41.163Z,5.47
2023-04-27T19:52:08.045Z,3.63
2023-04-27T19:54:38.177Z,6.18
2023-04-27T19:57:05.553Z,3.90
2023-04-27T19:59:32.656Z,8.75
2023-04-27T20:01:59.569Z,5.40
2023-04-27T20:04:27.516Z,5.22
2023-04-27T20:06:54.605Z,6.78
2023-04-27T20:09:21.626Z,3.63
2023-04-27T20:11:49.064Z,6.80
2023-04-27T20:14:16.404Z,4.78
2023-04-27T20:16:43.699Z,4.82
2023-04-27T20:19:10.966Z,6.75
2023-04-27T20:21:38.444Z,7.22
2023-04-27T20:24:05.543Z,5.00
2023-04-27T20:26:32.655Z,5.13
2023-04-27T20:28:59.723Z,5.65
2023-04-27T20:31:26.800Z,9.07
2023-04-27T20:33:53.880Z,8.35
2023-04-27T20:36:23.269Z,6.07
2023-04-27T20:38:50.377Z,7.93
2023-04-27T20:41:17.548Z,7.50
2023-04-27T20:43:45.626Z,6.20
2023-04-27T20:46:12.921Z,9.20
2023-04-27T20:48:40.084Z,7.32
2023-04-27T20:51:07.084Z,5.80
2023-04-27T20:53:34.399Z,7.00
2023-04-27T20:56:02.423Z,8.38
2023-04-27T20:58:29.480Z,8.77
2023-04-27T21:00:56.560Z,8.45
2023-04-27T21:03:23.782Z,8.73
2023-04-27T21:05:50.944Z,8.13
2023-04-27T21:08:18.315Z,7.63
2023-04-27T21:10:45.345Z,6.18
2023-04-27T21:13:12.200Z,5.20
2023-04-27T21:15:39.476Z,8.48
2023-04-27T21:18:13.488Z,7.15
2023-04-27T21:20:46.149Z,5.83
2023-04-27T21:23:14.890Z,7.80
2023-04-27T21:25:46.116Z,9.00
2023-04-27T21:28:13.565Z,5.47
2023-04-27T21:30:40.962Z,5.22
2023-04-27T21:33:08.098Z,7.32
2023-04-27T21:35:35.057Z,8.88
2023-04-27T21:38:02.114Z,5.60
2023-04-27T21:40:29.114Z,6.78
2023-04-27T21:42:56.504Z,5.22
2023-04-27T21:45:23.611Z,8.27
2023-04-27T21:47:50.871Z,6.65
2023-04-27T21:50:18.317Z,6.60
2023-04-27T21:52:45.944Z,8.25
2023-04-27T21:55:12.900Z,6.13
2023-04-27T21:57:41.561Z,7.07
2023-04-27T22:00:13.497Z,8.98
2023-04-27T22:02:48.262Z,10.70
2023-04-27T22:05:16.432Z,8.02
2023-04-27T22:07:46.243Z,8.52
2023-04-27T22:10:13.410Z,8.18
2023-04-27T22:12:40.595Z,10.63
2023-04-27T22:15:08.517Z,10.63
2023-04-27T22:17:35.749Z,7.80
2023-04-27T22:20:04.683Z,6.85
2023-04-27T22:22:31.576Z,8.30
2023-04-27T22:24:58.460Z,8.80
2023-04-27T22:27:30.058Z,7.22
2023-04-27T22:30:02.857Z,11.38
2023-04-27T22:32:31.077Z,8.57
2023-04-27T22:34:58.532Z,8.07
2023-04-27T22:37:26.772Z,6.55
2023-04-27T22:39:55.538Z,7.22
2023-04-27T22:42:22.532Z,6.70
2023-04-27T22:44:49.545Z,7.47
2023-04-27T22:47:17.010Z,8.93
2023-04-27T22:49:44.156Z,9.55
2023-04-27T22:52:11.701Z,9.80
2023-04-27T22:54:38.522Z,8.45
2023-04-27T22:57:05.657Z,8.98
2023-04-27T22:59:32.774Z,8.68
2023-04-27T23:01:59.814Z,7.72
2023-04-27T23:04:27.504Z,10.25
2023-04-27T23:06:54.749Z,10.85
2023-04-27T23:09:22.028Z,8.20
2023-04-27T23:11:51.869Z,9.98
2023-04-27T23:14:19.097Z,11.23
2023-04-27T23:16:47.419Z,9.40
2023-04-27T23:19:14.989Z,9.85
2023-04-27T23:21:42.160Z,10.55
2023-04-27T23:24:09.075Z,8.48
2023-04-27T23:26:35.948Z,10.05
2023-04-27T23:29:03.168Z,7.57
2023-04-27T23:31:30.425Z,12.70
2023-04-27T23:33:58.218Z,9.82
2023-04-27T23:36:25.336Z,7.25
2023-04-27T23:38:52.717Z,7.65
2023-04-27T23:41:20.865Z,10.20
2023-04-27T23:43:48.185Z,9.07
2023-04-27T23:46:15.162Z,6.28
2023-04-27T23:48:42.774Z,6.80
2023-04-27T23:51:09.681Z,10.98
2023-04-27T23:53:36.780Z,8.45
2023-04-27T23:56:03.960Z,11.68
2023-04-27T23:58:31.091Z,12.98
